createdAt,value
2016-02-08T00:03:55.917Z,21.69
2016-02-08T00:04:08.448Z,21.71
2016-02-08T00:05:08.328Z,21.69
2016-02-08T00:06:08.440Z,21.71
2016-02-08T00:07:08.443Z,21.72
2016-02-08T00:08:08.461Z,21.72
2016-02-08T00:09:08.463Z,21.71
2016-02-08T00:10:08.466Z,21.72
2016-02-08T00:11:08.485Z,21.69
2016-02-08T00:12:08.476Z,21.74
2016-02-08T00:13:08.464Z,21.77
2016-02-08T00:14:08.499Z,21.71
2016-02-08T00:15:08.486Z,21.74
2016-02-08T00:16:08.489Z,21.69
2016-02-08T00:17:08.508Z,21.77
2016-02-08T00:18:08.510Z,21.68
2016-02-08T00:19:08.515Z,21.74
2016-02-08T00:20:08.533Z,21.61
2016-02-08T00:21:08.535Z,21.69
2016-02-08T00:22:08.523Z,21.67
2016-02-08T00:23:08.541Z,21.72
2016-02-08T00:24:08.559Z,21.65
2016-02-08T00:25:08.546Z,21.67
2016-02-08T00:26:08.564Z,21.68
2016-02-08T00:27:08.569Z,21.67
2016-02-08T00:28:08.572Z,21.74
2016-02-08T00:29:08.574Z,21.64
2016-02-08T00:33:49.572Z,21.75
2016-02-08T00:34:02.244Z,21.77
2016-02-08T00:35:02.232Z,21.67
2016-02-08T00:36:02.238Z,21.62
2016-02-08T00:37:02.256Z,21.82
2016-02-08T00:38:02.242Z,21.67
2016-02-08T00:39:02.246Z,21.62
2016-02-08T00:40:02.264Z,21.61
2016-02-08T00:41:02.284Z,21.67
2016-02-08T00:42:02.271Z,21.61
2016-02-08T00:43:02.269Z,21.69
2016-02-08T00:44:02.302Z,21.68
2016-02-08T00:45:02.290Z,21.62
2016-02-08T00:46:02.293Z,21.67
2016-02-08T00:47:02.310Z,21.64
2016-02-08T00:48:02.298Z,21.69
2016-02-08T00:49:02.300Z,21.64
2016-02-08T00:50:02.350Z,21.62
2016-02-08T00:51:02.321Z,21.64
2016-02-08T00:52:02.323Z,21.68
2016-02-08T00:53:02.366Z,21.62
2016-02-08T00:54:02.337Z,21.64
2016-02-08T00:55:02.340Z,21.72
2016-02-08T00:56:02.359Z,21.64
2016-02-08T00:57:02.362Z,21.64
2016-02-08T00:58:02.365Z,21.61
2016-02-08T00:59:02.368Z,21.61
2016-02-08T01:00:35.217Z,21.65
2016-02-08T01:01:02.388Z,21.65
2016-02-08T01:02:02.380Z,21.68
2016-02-08T01:03:02.398Z,21.69
2016-02-08T01:04:02.401Z,21.67
2016-02-08T01:05:02.403Z,21.68
2016-02-08T01:06:02.422Z,21.69
2016-02-08T01:07:02.424Z,21.71
2016-02-08T01:08:02.444Z,21.71
2016-02-08T01:09:02.431Z,21.62
2016-02-08T01:10:02.434Z,21.68
2016-02-08T01:11:02.423Z,21.62
2016-02-08T01:12:02.457Z,21.64
2016-02-08T01:13:02.445Z,21.64
2016-02-08T01:14:02.479Z,21.67
2016-02-08T01:15:02.465Z,21.61
2016-02-08T01:16:02.501Z,21.62
2016-02-08T01:17:02.488Z,21.62
2016-02-08T01:18:02.490Z,21.62
2016-02-08T01:19:02.493Z,21.65
2016-02-08T01:20:02.496Z,21.62
2016-02-08T01:21:02.515Z,21.64
2016-02-08T01:22:02.501Z,21.65
2016-02-08T01:23:02.520Z,21.61
2016-02-08T01:24:02.523Z,21.64
2016-02-08T01:25:02.526Z,21.61
2016-02-08T01:26:02.528Z,21.52
2016-02-08T01:27:02.547Z,21.61
2016-02-08T01:28:02.534Z,21.69
2016-02-08T01:29:02.537Z,21.61
2016-02-08T01:31:38.123Z,21.65
2016-02-08T01:32:38.141Z,21.54
2016-02-08T01:33:38.128Z,21.61
2016-02-08T01:34:38.146Z,21.56
2016-02-08T01:35:38.134Z,21.53
2016-02-08T01:36:38.138Z,21.61
2016-02-08T01:37:38.140Z,21.54
2016-02-08T01:38:38.158Z,21.64
2016-02-08T01:39:38.145Z,21.68
2016-02-08T01:40:38.159Z,21.53
2016-02-08T01:41:38.162Z,21.54
2016-02-08T01:42:38.181Z,21.56
2016-02-08T01:43:38.168Z,21.58
2016-02-08T01:44:38.172Z,21.56
2016-02-08T01:45:38.190Z,21.56
2016-02-08T01:46:38.194Z,21.52
2016-02-08T01:47:38.040Z,21.68
2016-02-08T01:48:38.214Z,21.56
2016-02-08T01:49:38.061Z,21.56
2016-02-08T01:50:38.222Z,21.54
2016-02-08T01:51:38.224Z,21.5
2016-02-08T01:52:38.227Z,21.59
2016-02-08T01:53:38.229Z,21.54
2016-02-08T01:54:38.247Z,21.52
2016-02-08T01:55:38.249Z,21.53
2016-02-08T01:56:38.252Z,21.67
2016-02-08T01:57:38.255Z,21.53
2016-02-08T01:58:38.258Z,21.52
2016-02-08T01:59:38.278Z,21.65
2016-02-08T02:03:08.222Z,21.56
2016-02-08T02:04:08.215Z,21.54
2016-02-08T02:05:08.232Z,21.53
2016-02-08T02:06:08.235Z,21.61
2016-02-08T02:07:08.237Z,21.54
2016-02-08T02:08:08.240Z,21.61
2016-02-08T02:09:08.248Z,21.61
2016-02-08T02:10:08.251Z,21.52
2016-02-08T02:11:08.270Z,21.56
2016-02-08T02:12:08.256Z,21.65
2016-02-08T02:13:08.259Z,21.54
2016-02-08T02:14:08.278Z,21.59
2016-02-08T02:15:08.124Z,21.59
2016-02-08T02:16:08.283Z,21.56
2016-02-08T02:17:08.301Z,21.53
2016-02-08T02:18:08.304Z,21.54
2016-02-08T02:19:08.306Z,21.61
2016-02-08T02:20:08.325Z,21.53
2016-02-08T02:21:08.328Z,21.61
2016-02-08T02:22:08.175Z,21.54
2016-02-08T02:23:08.333Z,21.53
2016-02-08T02:24:08.336Z,21.52
2016-02-08T02:25:08.340Z,21.52
2016-02-08T02:26:08.343Z,21.53
2016-02-08T02:27:08.361Z,21.56
2016-02-08T02:28:08.363Z,21.52
2016-02-08T02:29:08.350Z,21.47
2016-02-08T02:32:04.984Z,21.47
2016-02-08T02:33:04.971Z,21.56
2016-02-08T02:34:04.974Z,21.47
2016-02-08T02:35:04.992Z,21.5
2016-02-08T02:36:04.995Z,21.53
2016-02-08T02:37:05.029Z,21.53
2016-02-08T02:38:05.004Z,21.53
2016-02-08T02:39:05.022Z,21.53
2016-02-08T02:40:05.057Z,21.53
2016-02-08T02:41:05.031Z,21.49
2016-02-08T02:42:05.033Z,21.52
2016-02-08T02:43:05.052Z,21.52
2016-02-08T02:44:05.039Z,21.52
2016-02-08T02:45:05.057Z,21.5
2016-02-08T02:46:05.078Z,21.56
2016-02-08T02:47:05.159Z,21.59
2016-02-08T02:48:05.068Z,21.52
2016-02-08T02:49:05.070Z,21.53
2016-02-08T02:50:05.104Z,21.52
2016-02-08T02:51:05.075Z,21.53
2016-02-08T02:52:05.095Z,21.62
2016-02-08T02:53:05.113Z,21.54
2016-02-08T02:54:05.116Z,21.56
2016-02-08T02:55:05.105Z,21.56
2016-02-08T02:56:05.123Z,21.64
2016-02-08T02:57:05.111Z,21.59
2016-02-08T02:58:05.129Z,21.56
2016-02-08T02:59:05.148Z,21.54
2016-02-08T03:01:07.778Z,21.52
2016-02-08T03:01:20.403Z,21.59
2016-02-08T03:02:20.437Z,21.59
2016-02-08T03:03:20.424Z,21.52
2016-02-08T03:04:20.426Z,21.58
2016-02-08T03:05:20.446Z,21.52
2016-02-08T03:06:20.448Z,21.53
2016-02-08T03:07:20.309Z,21.5
2016-02-08T03:08:20.454Z,21.5
2016-02-08T03:09:20.456Z,21.53
2016-02-08T03:10:20.475Z,21.52
2016-02-08T03:11:20.478Z,21.52
2016-02-08T03:12:20.482Z,21.5
2016-02-08T03:13:20.485Z,21.5
2016-02-08T03:14:20.487Z,21.53
2016-02-08T03:15:20.505Z,21.54
2016-02-08T03:16:20.508Z,21.47
2016-02-08T03:17:20.542Z,21.54
2016-02-08T03:18:20.514Z,21.47
2016-02-08T03:19:20.532Z,21.49
2016-02-08T03:20:20.535Z,21.53
2016-02-08T03:21:20.526Z,21.46
2016-02-08T03:22:20.560Z,21.52
2016-02-08T03:23:20.532Z,21.47
2016-02-08T03:24:20.535Z,21.46
2016-02-08T03:25:20.554Z,21.54
2016-02-08T03:26:20.555Z,21.53
2016-02-08T03:27:20.558Z,21.46
2016-02-08T03:28:20.576Z,21.56
2016-02-08T03:29:20.565Z,21.46
2016-02-08T03:31:12.118Z,21.54
2016-02-08T03:31:24.789Z,21.53
2016-02-08T03:32:24.791Z,21.56
2016-02-08T03:33:24.794Z,21.44
2016-02-08T03:34:24.812Z,21.54
2016-02-08T03:35:24.815Z,21.56
2016-02-08T03:36:24.818Z,21.52
2016-02-08T03:37:24.837Z,21.54
2016-02-08T03:38:24.824Z,21.43
2016-02-08T03:39:24.826Z,21.4
2016-02-08T03:40:24.860Z,21.35
2016-02-08T03:41:24.848Z,21.43
2016-02-08T03:42:24.853Z,21.38
2016-02-08T03:43:24.854Z,21.42
2016-02-08T03:44:24.857Z,21.43
2016-02-08T03:45:24.860Z,21.37
2016-02-08T03:46:24.877Z,21.4
2016-02-08T03:47:24.865Z,21.4
2016-02-08T03:48:24.870Z,21.42
2016-02-08T03:49:24.887Z,21.38
2016-02-08T03:50:24.925Z,21.46
2016-02-08T03:51:24.898Z,21.4
2016-02-08T03:52:24.916Z,21.37
2016-02-08T03:53:24.919Z,21.4
2016-02-08T03:54:24.906Z,21.4
2016-02-08T03:55:24.924Z,21.4
2016-02-08T03:56:24.943Z,21.46
2016-02-08T03:57:24.931Z,21.4
2016-02-08T03:58:24.934Z,21.43
2016-02-08T03:59:24.951Z,21.46
2016-02-08T04:05:00.842Z,21.4
2016-02-08T04:06:00.830Z,21.47
2016-02-08T04:07:00.832Z,21.46
2016-02-08T04:08:00.835Z,21.42
2016-02-08T04:09:00.838Z,21.42
2016-02-08T04:10:00.842Z,21.47
2016-02-08T04:11:00.859Z,21.37
2016-02-08T04:12:00.894Z,21.4
2016-02-08T04:13:00.867Z,21.4
2016-02-08T04:14:00.870Z,21.44
2016-02-08T04:15:00.888Z,21.35
2016-02-08T04:16:00.875Z,21.44
2016-02-08T04:17:00.894Z,21.4
2016-02-08T04:18:00.897Z,21.37
2016-02-08T04:19:00.900Z,21.37
2016-02-08T04:20:00.903Z,21.37
2016-02-08T04:21:00.921Z,21.42
2016-02-08T04:22:00.924Z,21.42
2016-02-08T04:23:00.927Z,21.46
2016-02-08T04:24:00.930Z,21.42
2016-02-08T04:25:00.933Z,21.42
2016-02-08T04:26:00.937Z,21.46
2016-02-08T04:27:00.971Z,21.4
2016-02-08T04:28:00.958Z,21.35
2016-02-08T04:29:00.960Z,21.44
2016-02-08T04:31:05.185Z,21.35
2016-02-08T04:32:05.188Z,21.38
2016-02-08T04:33:05.191Z,21.37
2016-02-08T04:34:05.194Z,21.42
2016-02-08T04:35:05.212Z,21.35
2016-02-08T04:36:05.215Z,21.35
2016-02-08T04:37:05.217Z,21.37
2016-02-08T04:38:05.064Z,21.49
2016-02-08T04:39:05.223Z,21.46
2016-02-08T04:40:05.242Z,21.47
2016-02-08T04:41:05.245Z,21.38
2016-02-08T04:42:05.075Z,21.4
2016-02-08T04:43:05.253Z,21.46
2016-02-08T04:44:05.240Z,21.34
2016-02-08T04:45:05.274Z,21.43
2016-02-08T04:46:05.261Z,21.43
2016-02-08T04:47:05.279Z,21.47
2016-02-08T04:48:05.266Z,21.43
2016-02-08T04:49:05.300Z,21.42
2016-02-08T04:50:05.302Z,21.46
2016-02-08T04:51:05.290Z,21.38
2016-02-08T04:52:05.294Z,21.34
2016-02-08T04:53:05.312Z,21.35
2016-02-08T04:54:05.315Z,21.43
2016-02-08T04:55:05.317Z,21.49
2016-02-08T04:56:05.320Z,21.43
2016-02-08T04:57:05.308Z,21.35
2016-02-08T04:58:05.325Z,21.42
2016-02-08T04:59:05.344Z,21.44
2016-02-08T05:01:18.708Z,21.42
2016-02-08T05:01:31.380Z,21.4
2016-02-08T05:02:31.383Z,21.42
2016-02-08T05:03:31.401Z,21.38
2016-02-08T05:04:31.385Z,21.44
2016-02-08T05:05:31.404Z,21.42
2016-02-08T05:06:31.407Z,21.43
2016-02-08T05:07:31.425Z,21.46
2016-02-08T05:08:31.412Z,21.46
2016-02-08T05:09:31.446Z,21.49
2016-02-08T05:10:31.448Z,21.43
2016-02-08T05:11:31.435Z,21.44
2016-02-08T05:12:31.433Z,21.42
2016-02-08T05:13:31.451Z,21.49
2016-02-08T05:14:31.454Z,21.4
2016-02-08T05:15:31.456Z,21.43
2016-02-08T05:16:31.474Z,21.4
2016-02-08T05:17:31.492Z,21.54
2016-02-08T05:18:31.480Z,21.46
2016-02-08T05:19:31.499Z,21.52
2016-02-08T05:20:31.517Z,21.52
2016-02-08T05:21:31.505Z,21.56
2016-02-08T05:22:31.485Z,21.58
2016-02-08T05:23:31.509Z,21.38
2016-02-08T05:24:31.487Z,21.47
2016-02-08T05:25:31.513Z,21.54
2016-02-08T05:26:31.475Z,21.47
2016-02-08T05:27:31.474Z,21.54
2016-02-08T05:28:31.490Z,21.56
2016-02-08T05:29:31.489Z,21.53
2016-02-08T05:35:16.383Z,21.5
2016-02-08T05:36:16.384Z,21.5
2016-02-08T05:37:16.386Z,21.56
2016-02-08T05:38:16.388Z,21.58
2016-02-08T05:39:16.391Z,21.54
2016-02-08T05:40:16.394Z,21.52
2016-02-08T05:41:16.397Z,21.54
2016-02-08T05:42:16.417Z,21.43
2016-02-08T05:43:16.405Z,21.58
2016-02-08T05:44:16.392Z,21.58
2016-02-08T05:45:16.442Z,21.5
2016-02-08T05:46:16.429Z,21.46
2016-02-08T05:47:16.431Z,21.5
2016-02-08T05:48:16.450Z,21.53
2016-02-08T05:49:16.437Z,21.52
2016-02-08T05:50:16.439Z,21.52
2016-02-08T05:51:16.457Z,21.46
2016-02-08T05:52:16.476Z,21.54
2016-02-08T05:53:16.463Z,21.49
2016-02-08T05:54:16.466Z,21.5
2016-02-08T05:55:16.484Z,21.52
2016-02-08T05:56:16.518Z,21.56
2016-02-08T05:57:16.474Z,21.49
2016-02-08T05:58:16.492Z,21.54
2016-02-08T05:59:16.526Z,21.58
2016-02-08T06:02:56.882Z,21.56
2016-02-08T06:03:56.884Z,21.52
2016-02-08T06:04:56.871Z,21.5
2016-02-08T06:05:56.890Z,21.54
2016-02-08T06:06:56.908Z,21.49
2016-02-08T06:07:56.879Z,21.58
2016-02-08T06:08:56.897Z,21.59
2016-02-08T06:09:56.916Z,21.54
2016-02-08T06:10:56.966Z,21.49
2016-02-08T06:11:56.905Z,21.49
2016-02-08T06:12:56.924Z,21.54
2016-02-08T06:13:56.929Z,21.47
2016-02-08T06:14:56.933Z,21.4
2016-02-08T06:15:56.952Z,21.49
2016-02-08T06:16:56.955Z,21.47
2016-02-08T06:17:56.958Z,21.52
2016-02-08T06:18:56.960Z,21.52
2016-02-08T06:19:56.978Z,21.56
2016-02-08T06:20:56.966Z,21.42
2016-02-08T06:21:56.968Z,21.49
2016-02-08T06:22:56.986Z,21.43
2016-02-08T06:23:57.005Z,21.44
2016-02-08T06:24:56.993Z,21.37
2016-02-08T06:25:56.995Z,21.47
2016-02-08T06:26:57.028Z,21.42
2016-02-08T06:27:57.001Z,21.5
2016-02-08T06:28:57.021Z,21.5
2016-02-08T06:29:57.039Z,21.38
2016-02-08T06:34:21.816Z,21.42
2016-02-08T06:35:01.615Z,21.34
2016-02-08T06:36:01.618Z,21.37
2016-02-08T06:37:01.469Z,21.4
2016-02-08T06:38:01.628Z,21.46
2016-02-08T06:39:01.631Z,21.43
2016-02-08T06:40:01.634Z,21.4
2016-02-08T06:41:01.651Z,21.42
2016-02-08T06:42:01.639Z,21.37
2016-02-08T06:43:01.657Z,21.44
2016-02-08T06:44:01.660Z,21.42
2016-02-08T06:45:01.681Z,21.37
2016-02-08T06:46:01.668Z,21.43
2016-02-08T06:47:01.670Z,21.46
2016-02-08T06:48:01.689Z,21.37
2016-02-08T06:49:01.676Z,21.44
2016-02-08T06:50:01.680Z,21.38
2016-02-08T06:51:01.699Z,21.42
2016-02-08T06:52:01.733Z,21.43
2016-02-08T06:53:01.705Z,21.43
2016-02-08T06:54:01.723Z,21.47
2016-02-08T06:55:01.741Z,21.43
2016-02-08T06:56:01.713Z,21.44
2016-02-08T06:57:01.715Z,21.43
2016-02-08T06:58:01.751Z,21.37
2016-02-08T06:59:01.738Z,21.37
2016-02-08T07:01:06.087Z,21.42
2016-02-08T07:02:06.075Z,21.42
2016-02-08T07:03:06.092Z,21.43
2016-02-08T07:04:06.096Z,21.4
2016-02-08T07:05:06.099Z,21.44
2016-02-08T07:06:06.105Z,21.47
2016-02-08T07:07:06.125Z,21.4
2016-02-08T07:08:06.127Z,21.43
2016-02-08T07:09:06.113Z,21.43
2016-02-08T07:10:06.133Z,21.46
2016-02-08T07:11:06.150Z,21.44
2016-02-08T07:12:06.139Z,21.4
2016-02-08T07:13:06.141Z,21.43
2016-02-08T07:14:06.144Z,21.37
2016-02-08T07:15:06.149Z,21.4
2016-02-08T07:16:06.166Z,21.44
2016-02-08T07:17:06.185Z,21.43
2016-02-08T07:18:06.172Z,21.4
2016-02-08T07:19:06.174Z,21.42
2016-02-08T07:20:06.193Z,21.44
2016-02-08T07:21:06.180Z,21.44
2016-02-08T07:22:06.199Z,21.38
2016-02-08T07:23:06.232Z,21.46
2016-02-08T07:24:06.204Z,21.4
2016-02-08T07:25:06.208Z,21.35
2016-02-08T07:26:06.226Z,21.43
2016-02-08T07:27:06.228Z,21.42
2016-02-08T07:28:06.246Z,21.4
2016-02-08T07:29:06.234Z,21.43
2016-02-08T07:32:46.916Z,21.59
2016-02-08T07:33:46.919Z,21.52
2016-02-08T07:34:46.938Z,21.65
2016-02-08T07:35:46.956Z,21.67
2016-02-08T07:36:46.943Z,21.65
2016-02-08T07:37:46.962Z,21.74
2016-02-08T07:38:46.949Z,21.71
2016-02-08T07:39:46.968Z,21.84
2016-02-08T07:40:46.986Z,21.83
2016-02-08T07:41:46.959Z,21.83
2016-02-08T07:42:46.962Z,21.9
2016-02-08T07:43:46.981Z,21.83
2016-02-08T07:44:46.985Z,21.94
2016-02-08T07:45:46.988Z,21.96
2016-02-08T07:46:47.011Z,21.96
2016-02-08T07:47:47.013Z,21.88
2016-02-08T07:48:47.000Z,22.02
2016-02-08T07:49:47.035Z,22.06
2016-02-08T07:50:47.022Z,22.09
2016-02-08T07:51:47.024Z,22.09
2016-02-08T07:52:47.026Z,22.06
2016-02-08T07:53:47.046Z,22.12
2016-02-08T07:54:47.048Z,22.05
2016-02-08T07:55:47.051Z,22.05
2016-02-08T07:56:47.069Z,22
2016-02-08T07:57:47.087Z,22.02
2016-02-08T07:58:47.059Z,22.12
2016-02-08T07:59:47.079Z,22.15
2016-02-08T08:01:27.413Z,22.15
2016-02-08T08:01:47.085Z,22.2
2016-02-08T08:02:47.103Z,22.21
2016-02-08T08:03:47.120Z,22.18
2016-02-08T08:04:47.109Z,22.24
2016-02-08T08:05:47.126Z,22.21
2016-02-08T08:06:47.160Z,22.15
2016-02-08T08:07:47.147Z,22.14
2016-02-08T08:08:47.150Z,22.22
2016-02-08T08:09:47.153Z,22.22
2016-02-08T08:10:47.171Z,22.2
2016-02-08T08:11:47.158Z,22.24
2016-02-08T08:12:47.150Z,22.28
2016-02-08T08:13:47.184Z,22.25
2016-02-08T08:14:47.172Z,22.25
2016-02-08T08:15:47.174Z,22.27
2016-02-08T08:16:47.207Z,22.28
2016-02-08T08:17:47.038Z,22.24
2016-02-08T08:18:47.213Z,22.28
2016-02-08T08:19:47.215Z,22.3
2016-02-08T08:20:47.218Z,22.28
2016-02-08T08:21:47.253Z,22.27
2016-02-08T08:22:47.224Z,22.28
2016-02-08T08:23:47.244Z,22.4
2016-02-08T08:24:47.230Z,22.4
2016-02-08T08:25:47.248Z,22.45
2016-02-08T08:26:47.268Z,22.35
2016-02-08T08:27:47.255Z,22.39
2016-02-08T08:28:47.257Z,22.4
2016-02-08T08:29:47.264Z,22.27
2016-02-08T08:33:05.224Z,22.39
2016-02-08T08:34:05.211Z,22.46
2016-02-08T08:35:05.215Z,22.42
2016-02-08T08:36:05.233Z,22.4
2016-02-08T08:37:05.252Z,22.39
2016-02-08T08:38:05.254Z,22.45
2016-02-08T08:39:05.256Z,22.45
2016-02-08T08:40:05.260Z,22.43
2016-02-08T08:41:05.278Z,22.4
2016-02-08T08:42:05.265Z,22.4
2016-02-08T08:43:05.269Z,22.45
2016-02-08T08:44:05.287Z,22.36
2016-02-08T08:45:05.321Z,22.33
2016-02-08T08:46:05.276Z,22.47
2016-02-08T08:47:05.311Z,22.4
2016-02-08T08:48:05.314Z,22.51
2016-02-08T08:49:05.317Z,22.42
2016-02-08T08:50:05.335Z,22.42
2016-02-08T08:51:05.183Z,22.49
2016-02-08T08:52:05.341Z,22.49
2016-02-08T08:53:05.345Z,22.46
2016-02-08T08:54:05.363Z,22.47
2016-02-08T08:55:05.349Z,22.46
2016-02-08T08:56:05.369Z,22.51
2016-02-08T08:57:05.372Z,22.51
2016-02-08T08:58:05.375Z,22.45
2016-02-08T08:59:05.377Z,22.47
2016-02-08T09:03:46.220Z,22.45
2016-02-08T09:03:58.564Z,22.46
2016-02-08T09:04:58.742Z,22.6
2016-02-08T09:05:58.729Z,22.51
2016-02-08T09:06:58.732Z,22.54
2016-02-08T09:07:58.750Z,22.58
2016-02-08T09:08:58.752Z,22.57
2016-02-08T09:09:58.756Z,22.47
2016-02-08T09:10:58.760Z,22.55
2016-02-08T09:11:58.764Z,22.64
2016-02-08T09:12:58.783Z,22.62
2016-02-08T09:13:59.254Z,22.72
2016-02-08T09:14:58.806Z,22.82
2016-02-08T09:15:58.792Z,22.85
2016-02-08T09:16:58.810Z,22.97
2016-02-08T09:17:58.815Z,22.88
2016-02-08T09:18:58.832Z,23.02
2016-02-08T09:19:58.835Z,23.16
2016-02-08T09:20:58.840Z,23.15
2016-02-08T09:21:58.859Z,23.1
2016-02-08T09:22:58.862Z,23
2016-02-08T09:23:58.879Z,23.01
2016-02-08T09:24:58.868Z,22.86
2016-02-08T09:25:58.870Z,22.9
2016-02-08T09:26:58.887Z,22.8
2016-02-08T09:27:58.891Z,22.83
2016-02-08T09:28:58.893Z,22.83
2016-02-08T09:33:21.076Z,22.8
2016-02-08T09:34:21.111Z,22.77
2016-02-08T09:35:21.097Z,22.75
2016-02-08T09:36:21.116Z,22.76
2016-02-08T09:37:21.118Z,22.72
2016-02-08T09:38:21.121Z,22.75
2016-02-08T09:39:21.125Z,22.7
2016-02-08T09:40:21.142Z,22.68
2016-02-08T09:41:21.131Z,22.73
2016-02-08T09:42:21.133Z,22.79
2016-02-08T09:43:21.150Z,22.7
2016-02-08T09:44:21.154Z,22.7
2016-02-08T09:45:21.158Z,22.68
2016-02-08T09:46:21.177Z,22.7
2016-02-08T09:47:21.195Z,22.68
2016-02-08T09:48:21.182Z,22.76
2016-02-08T09:49:21.185Z,22.7
2016-02-08T09:50:21.218Z,22.8
2016-02-08T09:51:21.205Z,22.75
2016-02-08T09:52:21.208Z,22.83
2016-02-08T09:53:21.228Z,22.79
2016-02-08T09:54:21.232Z,22.94
2016-02-08T09:55:21.234Z,23.02
2016-02-08T09:56:21.252Z,23.02
2016-02-08T09:57:21.271Z,22.98
2016-02-08T09:58:21.258Z,22.98
2016-02-08T09:59:21.260Z,23
2016-02-08T10:04:59.605Z,22.82
2016-02-08T10:05:59.607Z,22.8
2016-02-08T10:06:59.631Z,22.8
2016-02-08T10:07:59.618Z,22.8
2016-02-08T10:08:59.636Z,22.79
2016-02-08T10:09:59.670Z,22.77
2016-02-08T10:10:59.642Z,22.73
2016-02-08T10:11:59.645Z,22.7
2016-02-08T10:12:59.663Z,22.79
2016-02-08T10:13:59.666Z,22.73
2016-02-08T10:14:59.671Z,22.7
2016-02-08T10:15:59.688Z,22.64
2016-02-08T10:16:59.676Z,22.7
2016-02-08T10:17:59.694Z,22.77
2016-02-08T10:18:59.697Z,22.75
2016-02-08T10:19:59.701Z,22.67
2016-02-08T10:20:59.719Z,22.72
2016-02-08T10:21:59.722Z,22.68
2016-02-08T10:22:59.741Z,22.73
2016-02-08T10:23:59.758Z,22.7
2016-02-08T10:24:59.730Z,22.72
2016-02-08T10:25:59.764Z,22.55
2016-02-08T10:26:59.751Z,22.7
2016-02-08T10:27:59.614Z,22.7
2016-02-08T10:28:59.772Z,22.7
2016-02-08T10:34:35.664Z,22.79
2016-02-08T10:35:35.682Z,22.64
2016-02-08T10:36:35.669Z,22.75
2016-02-08T10:37:35.672Z,22.82
2016-02-08T10:38:35.690Z,22.75
2016-02-08T10:39:35.724Z,22.73
2016-02-08T10:40:35.696Z,22.75
2016-02-08T10:41:35.715Z,22.73
2016-02-08T10:42:35.703Z,22.7
2016-02-08T10:43:35.720Z,22.72
2016-02-08T10:44:35.724Z,22.68
2016-02-08T10:45:35.726Z,22.68
2016-02-08T10:46:35.745Z,22.72
2016-02-08T10:47:35.747Z,22.7
2016-02-08T10:48:35.751Z,22.76
2016-02-08T10:49:35.769Z,22.82
2016-02-08T10:50:35.755Z,22.8
2016-02-08T10:51:35.774Z,22.76
2016-02-08T10:52:35.777Z,22.82
2016-02-08T10:53:35.794Z,22.79
2016-02-08T10:54:35.813Z,22.79
2016-02-08T10:55:35.799Z,22.77
2016-02-08T10:56:35.819Z,22.8
2016-02-08T10:57:35.852Z,22.79
2016-02-08T10:58:35.840Z,22.75
2016-02-08T10:59:35.843Z,22.8
2016-02-08T11:05:11.700Z,22.72
2016-02-08T11:06:11.702Z,22.64
2016-02-08T11:07:11.722Z,22.7
2016-02-08T11:08:11.711Z,22.75
2016-02-08T11:09:11.730Z,22.8
2016-02-08T11:10:11.748Z,22.8
2016-02-08T11:11:11.740Z,22.8
2016-02-08T11:12:11.742Z,22.8
2016-02-08T11:13:11.759Z,22.76
2016-02-08T11:14:11.762Z,22.79
2016-02-08T11:15:11.765Z,22.82
2016-02-08T11:16:11.785Z,22.76
2016-02-08T11:17:11.803Z,22.83
2016-02-08T11:18:11.790Z,22.8
2016-02-08T11:19:11.809Z,22.83
2016-02-08T11:20:11.826Z,22.83
2016-02-08T11:21:11.815Z,22.8
2016-02-08T11:22:11.833Z,22.88
2016-02-08T11:23:11.835Z,22.79
2016-02-08T11:24:11.854Z,22.8
2016-02-08T11:25:11.841Z,22.79
2016-02-08T11:26:11.876Z,22.85
2016-02-08T11:27:11.878Z,22.82
2016-02-08T11:28:11.866Z,22.8
2016-02-08T11:29:11.869Z,22.82
2016-02-08T11:30:43.518Z,22.82
2016-02-08T11:31:11.893Z,22.8
2016-02-08T11:32:11.912Z,22.83
2016-02-08T11:33:11.931Z,22.8
2016-02-08T11:34:11.933Z,22.86
2016-02-08T11:35:11.920Z,22.8
2016-02-08T11:36:11.953Z,22.85
2016-02-08T11:37:11.944Z,22.91
2016-02-08T11:38:11.951Z,22.88
2016-02-08T11:39:11.969Z,22.88
2016-02-08T11:40:11.956Z,22.83
2016-02-08T11:41:11.959Z,22.91
2016-02-08T11:42:11.978Z,22.91
2016-02-08T11:43:11.966Z,22.91
2016-02-08T11:44:11.985Z,22.94
2016-02-08T11:45:12.004Z,22.92
2016-02-08T11:46:12.007Z,22.86
2016-02-08T11:47:12.010Z,22.9
2016-02-08T11:48:12.028Z,22.82
2016-02-08T11:49:12.016Z,22.92
2016-02-08T11:50:11.268Z,22.9
2016-02-08T11:51:12.036Z,22.92
2016-02-08T11:52:12.056Z,22.91
2016-02-08T11:53:12.042Z,22.86
2016-02-08T11:54:12.076Z,22.8
2016-02-08T11:55:12.063Z,22.8
2016-02-08T11:56:12.067Z,22.92
2016-02-08T11:57:12.105Z,22.94
2016-02-08T11:58:12.076Z,22.97
2016-02-08T11:59:12.126Z,22.95
2016-02-08T12:01:14.728Z,22.8
2016-02-08T12:01:27.369Z,22.83
2016-02-08T12:02:27.386Z,22.88
2016-02-08T12:03:27.405Z,22.86
2016-02-08T12:04:27.392Z,22.8
2016-02-08T12:05:27.396Z,22.83
2016-02-08T12:06:27.414Z,22.9
2016-02-08T12:07:27.422Z,22.86
2016-02-08T12:08:27.284Z,22.86
2016-02-08T12:09:27.427Z,22.88
2016-02-08T12:10:27.461Z,22.92
2016-02-08T12:11:27.463Z,22.86
2016-02-08T12:12:27.295Z,22.88
2016-02-08T12:13:27.455Z,22.91
2016-02-08T12:14:27.488Z,22.9
2016-02-08T12:15:27.476Z,22.86
2016-02-08T12:16:27.478Z,22.91
2016-02-08T12:17:27.497Z,22.94
2016-02-08T12:18:27.499Z,22.9
2016-02-08T12:19:27.502Z,22.94
2016-02-08T12:20:27.505Z,22.91
2016-02-08T12:21:27.523Z,22.86
2016-02-08T12:22:27.525Z,22.95
2016-02-08T12:23:27.544Z,22.91
2016-02-08T12:24:27.563Z,23
2016-02-08T12:25:27.549Z,23.02
2016-02-08T12:26:27.553Z,23
2016-02-08T12:27:27.572Z,23.04
2016-02-08T12:28:27.605Z,23
2016-02-08T12:29:27.577Z,23.02
2016-02-08T12:33:37.043Z,23.17
2016-02-08T12:34:16.855Z,23.19
2016-02-08T12:35:16.859Z,23.1
2016-02-08T12:36:16.862Z,23.2
2016-02-08T12:37:16.865Z,23.19
2016-02-08T12:38:16.884Z,23.28
2016-02-08T12:39:16.917Z,23.22
2016-02-08T12:40:16.890Z,23.2
2016-02-08T12:41:16.893Z,23.13
2016-02-08T12:42:16.910Z,23.23
2016-02-08T12:43:16.914Z,23.23
2016-02-08T12:44:16.917Z,23.35
2016-02-08T12:45:16.919Z,23.35
2016-02-08T12:46:16.938Z,23.31
2016-02-08T12:47:16.941Z,23.39
2016-02-08T12:48:16.945Z,23.39
2016-02-08T12:49:16.963Z,23.36
2016-02-08T12:50:16.965Z,23.4
2016-02-08T12:51:16.968Z,23.38
2016-02-08T12:52:16.985Z,23.33
2016-02-08T12:53:16.989Z,23.4
2016-02-08T12:54:17.007Z,23.39
2016-02-08T12:55:16.994Z,23.46
2016-02-08T12:56:17.012Z,23.4
2016-02-08T12:57:17.032Z,23.38
2016-02-08T12:58:17.018Z,23.28
2016-02-08T12:59:17.020Z,23.38
2016-02-08T13:03:26.501Z,23.35
2016-02-08T13:04:06.316Z,23.32
2016-02-08T13:05:06.319Z,23.36
2016-02-08T13:06:06.338Z,23.32
2016-02-08T13:07:06.309Z,23.32
2016-02-08T13:08:06.320Z,23.31
2016-02-08T13:09:06.339Z,23.32
2016-02-08T13:10:06.343Z,23.35
2016-02-08T13:11:06.345Z,23.4
2016-02-08T13:12:06.363Z,23.33
2016-02-08T13:13:06.367Z,23.25
2016-02-08T13:14:06.369Z,23.27
2016-02-08T13:15:06.387Z,23.31
2016-02-08T13:16:06.389Z,23.31
2016-02-08T13:17:06.392Z,23.27
2016-02-08T13:18:06.395Z,23.33
2016-02-08T13:19:06.414Z,23.35
2016-02-08T13:20:06.431Z,23.33
2016-02-08T13:21:06.433Z,23.32
2016-02-08T13:22:06.437Z,23.31
2016-02-08T13:23:06.441Z,23.32
2016-02-08T13:24:06.444Z,23.2
2016-02-08T13:25:06.478Z,23.38
2016-02-08T13:26:06.466Z,23.32
2016-02-08T13:27:06.468Z,23.25
2016-02-08T13:28:06.487Z,23.31
2016-02-08T13:29:06.489Z,23.23
2016-02-08T13:33:27.078Z,23.22
2016-02-08T13:33:55.784Z,23.23
2016-02-08T13:34:55.771Z,23.31
2016-02-08T13:35:55.773Z,23.27
2016-02-08T13:36:55.777Z,23.23
2016-02-08T13:37:55.797Z,23.31
2016-02-08T13:38:55.799Z,23.22
2016-02-08T13:39:55.819Z,23.35
2016-02-08T13:40:55.822Z,23.33
2016-02-08T13:41:55.841Z,23.39
2016-02-08T13:42:55.827Z,23.32
2016-02-08T13:43:55.830Z,23.35
2016-02-08T13:44:55.865Z,23.32
2016-02-08T13:45:55.836Z,23.32
2016-02-08T13:46:55.854Z,23.33
2016-02-08T13:47:55.858Z,23.28
2016-02-08T13:48:55.876Z,23.35
2016-02-08T13:49:55.879Z,23.23
2016-02-08T13:50:55.896Z,23.16
2016-02-08T13:51:55.885Z,23.22
2016-02-08T13:52:55.902Z,23.19
2016-02-08T13:53:55.904Z,23.23
2016-02-08T13:54:55.923Z,23.13
2016-02-08T13:55:55.930Z,23.23
2016-02-08T13:56:55.933Z,23.23
2016-02-08T13:57:55.950Z,23.2
2016-02-08T13:58:55.953Z,23.23
2016-02-08T13:59:55.956Z,23.32